sensor_id;sensor_type;location;lat;lon;timestamp;pressure;altitude;pressure_sealevel;temperature;humidity
7052;BME280;3567;52.444;13.556;2022-11-06T00:00:32;101513.53;;;4.28;100.00
7052;BME280;3567;52.444;13.556;2022-11-06T00:02:58;101518.16;;;4.26;100.00
7052;BME280;3567;52.444;13.556;2022-11-06T00:05:25;101509.88;;;4.29;100.00
7052;BME280;3567;52.444;13.556;2022-11-06T00:08:09;101513.16;;;4.31;100.00
7052;BME280;3567;52.444;13.556;2022-11-06T00:10:34;101510.19;;;4.34;100.00
7052;BME280;3567;52.444;13.556;2022-11-06T00:13:00;101516.00;;;4.37;100.00
7052;BME280;3567;52.444;13.556;2022-11-06T00:15:25;101511.34;;;4.39;100.00
7052;BME280;3567;52.444;13.556;2022-11-06T00:17:51;101512.19;;;4.32;100.00
7052;BME280;3567;52.444;13.556;2022-11-06T00:20:16;101516.81;;;4.30;100.00
7052;BME280;3567;52.444;13.556;2022-11-06T00:22:42;101511.50;;;4.30;100.00
7052;BME280;3567;52.444;13.556;2022-11-06T00:25:08;101520.47;;;4.29;100.00
7052;BME280;3567;52.444;13.556;2022-11-06T00:27:38;101519.81;;;4.27;100.00
7052;BME280;3567;52.444;13.556;2022-11-06T00:30:07;101511.19;;;4.33;100.00
7052;BME280;3567;52.444;13.556;2022-11-06T00:32:33;101514.50;;;4.35;100.00
7052;BME280;3567;52.444;13.556;2022-11-06T00:34:59;101507.50;;;4.42;100.00
7052;BME280;3567;52.444;13.556;2022-11-06T00:37:25;101512.16;;;4.48;100.00
7052;BME280;3567;52.444;13.556;2022-11-06T00:39:50;101508.97;;;4.53;100.00
7052;BME280;3567;52.444;13.556;2022-11-06T00:42:15;101510.47;;;4.55;100.00
7052;BME280;3567;52.444;13.556;2022-11-06T00:44:41;101506.50;;;4.59;100.00
7052;BME280;3567;52.444;13.556;2022-11-06T00:47:06;101515.91;;;4.62;100.00
7052;BME280;3567;52.444;13.556;2022-11-06T00:49:31;101510.44;;;4.63;100.00
7052;BME280;3567;52.444;13.556;2022-11-06T00:51:57;101502.97;;;4.67;100.00
7052;BME280;3567;52.444;13.556;2022-11-06T00:54:22;101509.78;;;4.69;100.00
7052;BME280;3567;52.444;13.556;2022-11-06T00:56:48;101507.94;;;4.70;100.00
7052;BME280;3567;52.444;13.556;2022-11-06T00:59:14;101509.09;;;4.67;100.00
7052;BME280;3567;52.444;13.556;2022-11-06T01:01:42;101511.13;;;4.65;100.00
7052;BME280;3567;52.444;13.556;2022-11-06T01:04:12;101516.28;;;4.59;100.00
7052;BME280;3567;52.444;13.556;2022-11-06T01:06:41;101508.69;;;4.47;100.00
7052;BME280;3567;52.444;13.556;2022-11-06T01:09:07;101501.88;;;4.45;100.00
7052;BME280;3567;52.444;13.556;2022-11-06T01:11:36;101507.34;;;4.43;100.00
7052;BME280;3567;52.444;13.556;2022-11-06T01:14:03;101505.22;;;4.39;100.00
7052;BME280;3567;52.444;13.556;2022-11-06T01:16:30;101511.19;;;4.33;100.00
7052;BME280;3567;52.444;13.556;2022-11-06T01:18:56;101513.19;;;4.23;100.00
7052;BME280;3567;52.444;13.556;2022-11-06T01:21:31;101516.53;;;4.16;100.00
7052;BME280;3567;52.444;13.556;2022-11-06T01:24:02;101506.22;;;4.13;100.00
7052;BME280;3567;52.444;13.556;2022-11-06T01:26:28;101502.44;;;4.08;100.00
7052;BME280;3567;52.444;13.556;2022-11-06T01:28:56;101498.94;;;4.07;100.00
7052;BME280;3567;52.444;13.556;2022-11-06T01:31:24;101495.13;;;4.10;100.00
7052;BME280;3567;52.444;13.556;2022-11-06T01:33:50;101491.31;;;4.04;100.00
7052;BME280;3567;52.444;13.556;2022-11-06T01:36:17;101493.31;;;4.02;100.00
7052;BME280;3567;52.444;13.556;2022-11-06T01:38:45;101494.31;;;4.09;100.00
7052;BME280;3567;52.444;13.556;2022-11-06T01:41:16;101482.41;;;4.05;100.00
7052;BME280;3567;52.444;13.556;2022-11-06T01:43:54;101480.56;;;3.98;100.00
7052;BME280;3567;52.444;13.556;2022-11-06T01:46:22;101478.75;;;3.90;100.00
7052;BME280;3567;52.444;13.556;2022-11-06T01:49:09;101483.88;;;3.83;100.00
7052;BME280;3567;52.444;13.556;2022-11-06T01:51:39;101480.06;;;3.78;100.00
7052;BME280;3567;52.444;13.556;2022-11-06T01:54:07;101473.63;;;3.80;100.00
7052;BME280;3567;52.444;13.556;2022-11-06T01:56:33;101466.00;;;3.85;100.00
7052;BME280;3567;52.444;13.556;2022-11-06T01:59:00;101469.47;;;3.94;100.00
7052;BME280;3567;52.444;13.556;2022-11-06T02:01:27;101459.88;;;4.01;100.00
7052;BME280;3567;52.444;13.556;2022-11-06T02:03:58;101461.84;;;3.99;100.00
7052;BME280;3567;52.444;13.556;2022-11-06T02:06:26;101454.41;;;3.94;100.00
7052;BME280;3567;52.444;13.556;2022-11-06T02:08:53;101463.84;;;3.97;100.00
7052;BME280;3567;52.444;13.556;2022-11-06T02:11:18;101459.50;;;4.04;100.00
7052;BME280;3567;52.444;13.556;2022-11-06T02:13:57;101454.22;;;4.12;100.00
7052;BME280;3567;52.444;13.556;2022-11-06T02:24:40;101440.59;;;4.32;100.00
7052;BME280;3567;52.444;13.556;2022-11-06T02:27:16;101444.53;;;4.36;100.00
7052;BME280;3567;52.444;13.556;2022-11-06T02:32:17;101436.88;;;4.41;100.00
7052;BME280;3567;52.444;13.556;2022-11-06T02:34:45;101432.25;;;4.43;100.00
7052;BME280;3567;52.444;13.556;2022-11-06T02:37:18;101432.06;;;4.44;100.00
7052;BME280;3567;52.444;13.556;2022-11-06T02:39:47;101432.72;;;4.46;100.00
7052;BME280;3567;52.444;13.556;2022-11-06T02:42:15;101435.22;;;4.48;100.00
7052;BME280;3567;52.444;13.556;2022-11-06T02:44:42;101441.00;;;4.52;100.00
7052;BME280;3567;52.444;13.556;2022-11-06T02:47:10;101432.88;;;4.53;100.00
7052;BME280;3567;52.444;13.556;2022-11-06T02:49:44;101439.66;;;4.56;100.00
7052;BME280;3567;52.444;13.556;2022-11-06T02:52:16;101436.69;;;4.59;100.00
7052;BME280;3567;52.444;13.556;2022-11-06T02:54:48;101435.50;;;4.61;100.00
7052;BME280;3567;52.444;13.556;2022-11-06T02:57:16;101434.16;;;4.65;100.00
7052;BME280;3567;52.444;13.556;2022-11-06T02:59:55;101429.50;;;4.67;100.00
7052;BME280;3567;52.444;13.556;2022-11-06T03:02:28;101429.16;;;4.70;100.00
7052;BME280;3567;52.444;13.556;2022-11-06T03:05:02;101429.66;;;4.74;100.00
7052;BME280;3567;52.444;13.556;2022-11-06T03:07:46;101427.28;;;4.79;100.00
7052;BME280;3567;52.444;13.556;2022-11-06T03:10:15;101428.78;;;4.82;100.00
7052;BME280;3567;52.444;13.556;2022-11-06T03:18:29;101420.94;;;4.88;100.00
7052;BME280;3567;52.444;13.556;2022-11-06T03:21:00;101419.78;;;4.91;100.00
7052;BME280;3567;52.444;13.556;2022-11-06T03:23:35;101417.75;;;4.93;100.00
7052;BME280;3567;52.444;13.556;2022-11-06T03:28:34;101432.69;;;4.94;100.00
7052;BME280;3567;52.444;13.556;2022-11-06T03:31:06;101426.72;;;4.92;100.00
7052;BME280;3567;52.444;13.556;2022-11-06T03:33:39;101427.38;;;4.94;100.00
7052;BME280;3567;52.444;13.556;2022-11-06T03:36:31;101426.72;;;4.92;100.00
7052;BME280;3567;52.444;13.556;2022-11-06T03:39:01;101427.06;;;4.89;100.00
7052;BME280;3567;52.444;13.556;2022-11-06T03:41:36;101428.25;;;4.86;100.00
7052;BME280;3567;52.444;13.556;2022-11-06T03:44:05;101440.69;;;4.86;100.00
7052;BME280;3567;52.444;13.556;2022-11-06T03:46:36;101436.41;;;4.85;100.00
7052;BME280;3567;52.444;13.556;2022-11-06T03:49:11;101432.88;;;4.84;100.00
7052;BME280;3567;52.444;13.556;2022-11-06T03:51:52;101431.41;;;4.82;100.00
7052;BME280;3567;52.444;13.556;2022-11-06T03:54:26;101427.28;;;4.79;100.00
7052;BME280;3567;52.444;13.556;2022-11-06T03:57:01;101421.50;;;4.76;100.00
7052;BME280;3567;52.444;13.556;2022-11-06T03:59:33;101421.69;;;4.74;100.00
7052;BME280;3567;52.444;13.556;2022-11-06T04:02:01;101415.72;;;4.72;100.00
7052;BME280;3567;52.444;13.556;2022-11-06T04:04:32;101415.22;;;4.68;100.00
7052;BME280;3567;52.444;13.556;2022-11-06T04:07:04;101414.75;;;4.65;100.00
7052;BME280;3567;52.444;13.556;2022-11-06T04:09:32;101413.44;;;4.61;100.00
7052;BME280;3567;52.444;13.556;2022-11-06T04:12:21;101419.06;;;4.58;100.00
7052;BME280;3567;52.444;13.556;2022-11-06T04:15:09;101421.28;;;4.54;100.00
7052;BME280;3567;52.444;13.556;2022-11-06T04:17:37;101411.16;;;4.50;100.00
7052;BME280;3567;52.444;13.556;2022-11-06T04:20:07;101402.56;;;4.47;100.00
7052;BME280;3567;52.444;13.556;2022-11-06T04:23:04;101409.84;;;4.45;100.00
7052;BME280;3567;52.444;13.556;2022-11-06T04:28:30;101404.41;;;4.39;100.00
7052;BME280;3567;52.444;13.556;2022-11-06T04:31:07;101398.47;;;4.37;100.00
7052;BME280;3567;52.444;13.556;2022-11-06T04:39:19;101399.78;;;4.33;100.00
7052;BME280;3567;52.444;13.556;2022-11-06T04:44:32;101401.78;;;4.31;100.00
7052;BME280;3567;52.444;13.556;2022-11-06T04:47:05;101404.59;;;4.29;100.00
7052;BME280;3567;52.444;13.556;2022-11-06T04:49:34;101389.06;;;4.26;100.00
7052;BME280;3567;52.444;13.556;2022-11-06T04:52:03;101395.31;;;4.25;100.00
7052;BME280;3567;52.444;13.556;2022-11-06T04:54:31;101395.19;;;4.27;100.00
7052;BME280;3567;52.444;13.556;2022-11-06T04:57:01;101393.50;;;4.26;100.00
7052;BME280;3567;52.444;13.556;2022-11-06T04:59:28;101394.50;;;4.25;100.00
7052;BME280;3567;52.444;13.556;2022-11-06T05:01:54;101398.16;;;4.24;100.00
7052;BME280;3567;52.444;13.556;2022-11-06T05:04:20;101391.22;;;4.23;100.00
7052;BME280;3567;52.444;13.556;2022-11-06T05:06:45;101388.88;;;4.19;100.00
7052;BME280;3567;52.444;13.556;2022-11-06T05:09:10;101384.59;;;4.18;100.00
7052;BME280;3567;52.444;13.556;2022-11-06T05:11:36;101379.59;;;4.15;100.00
7052;BME280;3567;52.444;13.556;2022-11-06T05:14:02;101384.91;;;4.15;100.00
7052;BME280;3567;52.444;13.556;2022-11-06T05:16:28;101377.97;;;4.14;100.00
7052;BME280;3567;52.444;13.556;2022-11-06T05:18:53;101377.13;;;4.14;100.00
7052;BME280;3567;52.444;13.556;2022-11-06T05:21:19;101374.84;;;4.11;100.00
7052;BME280;3567;52.444;13.556;2022-11-06T05:24:03;101376.00;;;4.08;100.00
7052;BME280;3567;52.444;13.556;2022-11-06T05:26:28;101375.34;;;4.06;100.00
7052;BME280;3567;52.444;13.556;2022-11-06T05:28:54;101374.34;;;4.07;100.00
7052;BME280;3567;52.444;13.556;2022-11-06T05:31:19;101378.00;;;4.06;100.00
7052;BME280;3567;52.444;13.556;2022-11-06T05:33:44;101371.06;;;4.05;100.00
7052;BME280;3567;52.444;13.556;2022-11-06T05:36:10;101379.97;;;4.04;100.00
7052;BME280;3567;52.444;13.556;2022-11-06T05:38:35;101379.16;;;4.04;100.00
7052;BME280;3567;52.444;13.556;2022-11-06T05:41:00;101381.81;;;4.04;100.00
7052;BME280;3567;52.444;13.556;2022-11-06T05:43:26;101381.97;;;4.02;100.00
7052;BME280;3567;52.444;13.556;2022-11-06T05:45:51;101385.63;;;4.01;100.00
7052;BME280;3567;52.444;13.556;2022-11-06T05:48:17;101383.16;;;4.00;100.00
7052;BME280;3567;52.444;13.556;2022-11-06T05:50:42;101386.78;;;3.99;100.00
7052;BME280;3567;52.444;13.556;2022-11-06T05:53:07;101381.00;;;3.95;100.00
7052;BME280;3567;52.444;13.556;2022-11-06T05:55:33;101375.88;;;3.93;100.00
7052;BME280;3567;52.444;13.556;2022-11-06T05:57:58;101380.50;;;3.91;100.00
7052;BME280;3567;52.444;13.556;2022-11-06T06:00:24;101383.34;;;3.90;100.00
7052;BME280;3567;52.444;13.556;2022-11-06T06:02:49;101382.66;;;3.88;100.00
7052;BME280;3567;52.444;13.556;2022-11-06T06:05:15;101384.50;;;3.87;100.00
7052;BME280;3567;52.444;13.556;2022-11-06T06:07:40;101392.31;;;3.89;100.00
7052;BME280;3567;52.444;13.556;2022-11-06T06:10:06;101389.78;;;3.87;100.00
7052;BME280;3567;52.444;13.556;2022-11-06T06:12:32;101388.16;;;3.86;100.00
7052;BME280;3567;52.444;13.556;2022-11-06T06:14:58;101381.03;;;3.87;100.00
7052;BME280;3567;52.444;13.556;2022-11-06T06:17:23;101386.16;;;3.88;100.00
7052;BME280;3567;52.444;13.556;2022-11-06T06:19:48;101384.34;;;3.89;100.00
7052;BME280;3567;52.444;13.556;2022-11-06T06:22:14;101384.16;;;3.90;100.00
7052;BME280;3567;52.444;13.556;2022-11-06T06:24:39;101395.59;;;3.91;100.00
7052;BME280;3567;52.444;13.556;2022-11-06T06:27:05;101398.88;;;3.93;100.00
7052;BME280;3567;52.444;13.556;2022-11-06T06:29:31;101397.25;;;3.92;100.00
7052;BME280;3567;52.444;13.556;2022-11-06T06:31:56;101397.88;;;3.94;100.00
7052;BME280;3567;52.444;13.556;2022-11-06T06:34:21;101398.56;;;3.96;100.00
7052;BME280;3567;52.444;13.556;2022-11-06T06:36:51;101403.88;;;3.96;100.00
7052;BME280;3567;52.444;13.556;2022-11-06T06:39:17;101393.78;;;4.00;100.00
7052;BME280;3567;52.444;13.556;2022-11-06T06:41:47;101401.53;;;4.01;100.00
7052;BME280;3567;52.444;13.556;2022-11-06T06:44:12;101406.50;;;4.04;100.00
7052;BME280;3567;52.444;13.556;2022-11-06T06:46:38;101398.38;;;4.06;100.00
7052;BME280;3567;52.444;13.556;2022-11-06T06:49:03;101410.28;;;4.10;100.00
7052;BME280;3567;52.444;13.556;2022-11-06T06:51:29;101413.44;;;4.13;100.00
7052;BME280;3567;52.444;13.556;2022-11-06T06:53:54;101410.47;;;4.16;100.00
7052;BME280;3567;52.444;13.556;2022-11-06T06:56:20;101412.44;;;4.23;100.00
7052;BME280;3567;52.444;13.556;2022-11-06T06:58:45;101407.44;;;4.28;100.00
7052;BME280;3567;52.444;13.556;2022-11-06T07:01:10;101417.34;;;4.34;100.00
7052;BME280;3567;52.444;13.556;2022-11-06T07:03:37;101409.72;;;4.39;100.00
7052;BME280;3567;52.444;13.556;2022-11-06T07:06:03;101410.34;;;4.49;100.00
7052;BME280;3567;52.444;13.556;2022-11-06T07:08:28;101414.25;;;4.61;100.00
7052;BME280;3567;52.444;13.556;2022-11-06T07:11:01;101411.59;;;4.69;100.00
7052;BME280;3567;52.444;13.556;2022-11-06T07:13:27;101414.56;;;4.75;100.00
7052;BME280;3567;52.444;13.556;2022-11-06T07:15:52;101418.47;;;4.79;100.00
7052;BME280;3567;52.444;13.556;2022-11-06T07:18:17;101412.66;;;4.83;100.00
7052;BME280;3567;52.444;13.556;2022-11-06T07:20:43;101417.44;;;4.88;100.00
7052;BME280;3567;52.444;13.556;2022-11-06T07:23:08;101420.41;;;4.93;100.00
7052;BME280;3567;52.444;13.556;2022-11-06T07:25:34;101418.69;;;5.00;100.00
7052;BME280;3567;52.444;13.556;2022-11-06T07:28:04;101417.16;;;5.06;100.00
7052;BME280;3567;52.444;13.556;2022-11-06T07:30:32;101412.81;;;5.13;100.00
7052;BME280;3567;52.444;13.556;2022-11-06T07:33:03;101411.59;;;5.23;100.00
7052;BME280;3567;52.444;13.556;2022-11-06T07:35:29;101413.19;;;5.33;100.00
7052;BME280;3567;52.444;13.556;2022-11-06T07:37:55;101405.78;;;5.43;100.00
7052;BME280;3567;52.444;13.556;2022-11-06T07:40:21;101405.72;;;5.51;100.00
7052;BME280;3567;52.444;13.556;2022-11-06T07:42:46;101400.34;;;5.59;100.00
7052;BME280;3567;52.444;13.556;2022-11-06T07:45:12;101397.63;;;5.67;100.00
7052;BME280;3567;52.444;13.556;2022-11-06T07:47:37;101402.69;;;5.77;100.00
7052;BME280;3567;52.444;13.556;2022-11-06T07:50:03;101397.13;;;5.87;100.00
7052;BME280;3567;52.444;13.556;2022-11-06T07:52:28;101401.19;;;5.97;100.00
7052;BME280;3567;52.444;13.556;2022-11-06T07:54:54;101403.75;;;6.06;100.00
7052;BME280;3567;52.444;13.556;2022-11-06T07:57:19;101407.16;;;6.14;100.00
7052;BME280;3567;52.444;13.556;2022-11-06T07:59:44;101411.56;;;6.22;100.00
7052;BME280;3567;52.444;13.556;2022-11-06T08:02:10;101406.78;;;6.32;100.00
7052;BME280;3567;52.444;13.556;2022-11-06T08:04:37;101388.25;;;6.39;100.00
7052;BME280;3567;52.444;13.556;2022-11-06T08:07:03;101385.75;;;6.52;100.00
7052;BME280;3567;52.444;13.556;2022-11-06T08:09:29;101390.16;;;6.60;100.00
7052;BME280;3567;52.444;13.556;2022-11-06T08:11:54;101388.22;;;6.68;100.00
7052;BME280;3567;52.444;13.556;2022-11-06T08:14:19;101392.03;;;6.80;100.00
7052;BME280;3567;52.444;13.556;2022-11-06T08:16:45;101390.91;;;6.90;100.00
7052;BME280;3567;52.444;13.556;2022-11-06T08:19:10;101388.78;;;7.00;100.00
7052;BME280;3567;52.444;13.556;2022-11-06T08:21:36;101393.97;;;7.08;100.00
7052;BME280;3567;52.444;13.556;2022-11-06T08:24:01;101394.47;;;7.18;100.00
7052;BME280;3567;52.444;13.556;2022-11-06T08:26:27;101393.34;;;7.27;100.00
7052;BME280;3567;52.444;13.556;2022-11-06T08:28:53;101396.31;;;7.39;100.00
7052;BME280;3567;52.444;13.556;2022-11-06T08:31:18;101386.97;;;7.50;100.00
7052;BME280;3567;52.444;13.556;2022-11-06T08:33:45;101395.28;;;7.61;100.00
7052;BME280;3567;52.444;13.556;2022-11-06T08:36:10;101400.72;;;7.75;100.00
7052;BME280;3567;52.444;13.556;2022-11-06T08:38:36;101391.75;;;7.82;100.00
7052;BME280;3567;52.444;13.556;2022-11-06T08:41:10;101396.13;;;7.90;100.00
7052;BME280;3567;52.444;13.556;2022-11-06T08:43:36;101396.97;;;7.97;100.00
7052;BME280;3567;52.444;13.556;2022-11-06T08:46:02;101399.69;;;8.04;100.00
7052;BME280;3567;52.444;13.556;2022-11-06T08:48:28;101391.16;;;8.15;100.00
7052;BME280;3567;52.444;13.556;2022-11-06T08:50:54;101394.69;;;8.22;100.00
7052;BME280;3567;52.444;13.556;2022-11-06T08:53:19;101389.59;;;8.34;99.86
7052;BME280;3567;52.444;13.556;2022-11-06T08:55:44;101378.97;;;8.40;98.75
7052;BME280;3567;52.444;13.556;2022-11-06T08:58:10;101371.44;;;8.51;99.21
7052;BME280;3567;52.444;13.556;2022-11-06T09:00:35;101374.56;;;8.61;98.79
7052;BME280;3567;52.444;13.556;2022-11-06T09:03:06;101366.38;;;8.69;98.08
7052;BME280;3567;52.444;13.556;2022-11-06T09:05:32;101358.59;;;8.74;97.55
7052;BME280;3567;52.444;13.556;2022-11-06T09:07:58;101366.41;;;8.82;96.69
7052;BME280;3567;52.444;13.556;2022-11-06T09:10:25;101355.56;;;8.90;96.73
7052;BME280;3567;52.444;13.556;2022-11-06T09:12:51;101355.34;;;8.99;96.48
7052;BME280;3567;52.444;13.556;2022-11-06T09:15:17;101361.13;;;9.09;95.54
7052;BME280;3567;52.444;13.556;2022-11-06T09:17:45;101362.59;;;9.11;94.35
7052;BME280;3567;52.444;13.556;2022-11-06T09:20:12;101373.28;;;9.18;94.46
7052;BME280;3567;52.444;13.556;2022-11-06T09:22:38;101364.84;;;9.28;94.52
7052;BME280;3567;52.444;13.556;2022-11-06T09:25:04;101359.91;;;9.44;94.11
7052;BME280;3567;52.444;13.556;2022-11-06T09:27:29;101360.31;;;9.68;93.83
7052;BME280;3567;52.444;13.556;2022-11-06T09:29:55;101357.59;;;9.94;92.70
7052;BME280;3567;52.444;13.556;2022-11-06T09:32:20;101354.84;;;10.21;91.98
7052;BME280;3567;52.444;13.556;2022-11-06T09:34:46;101369.00;;;10.55;91.32
7052;BME280;3567;52.444;13.556;2022-11-06T09:37:11;101369.88;;;10.80;88.98
7052;BME280;3567;52.444;13.556;2022-11-06T09:39:37;101368.69;;;11.08;87.57
7052;BME280;3567;52.444;13.556;2022-11-06T09:42:15;101362.78;;;11.31;85.62
7052;BME280;3567;52.444;13.556;2022-11-06T09:45:02;101358.28;;;11.49;85.00
7052;BME280;3567;52.444;13.556;2022-11-06T09:47:35;101361.13;;;11.54;84.07
7052;BME280;3567;52.444;13.556;2022-11-06T09:50:03;101365.25;;;11.57;84.08
7052;BME280;3567;52.444;13.556;2022-11-06T09:55:09;101365.84;;;11.84;80.89
7052;BME280;3567;52.444;13.556;2022-11-06T09:57:53;101355.28;;;11.89;80.75
7052;BME280;3567;52.444;13.556;2022-11-06T10:00:20;101356.31;;;11.88;80.88
7052;BME280;3567;52.444;13.556;2022-11-06T10:02:54;101353.06;;;11.79;80.12
7052;BME280;3567;52.444;13.556;2022-11-06T10:05:25;101356.78;;;11.78;80.66
7052;BME280;3567;52.444;13.556;2022-11-06T10:07:54;101357.34;;;11.87;80.76
7052;BME280;3567;52.444;13.556;2022-11-06T10:10:26;101353.88;;;11.80;79.91
7052;BME280;3567;52.444;13.556;2022-11-06T10:21:06;101333.88;;;12.68;79.11
7052;BME280;3567;52.444;13.556;2022-11-06T10:23:46;101336.78;;;12.96;77.68
7052;BME280;3567;52.444;13.556;2022-11-06T10:26:16;101331.63;;;13.36;77.16
7052;BME280;3567;52.444;13.556;2022-11-06T10:34:22;101323.56;;;13.60;74.96
7052;BME280;3567;52.444;13.556;2022-11-06T10:36:55;101321.44;;;13.62;74.14
7052;BME280;3567;52.444;13.556;2022-11-06T10:39:27;101315.00;;;13.63;73.61
7052;BME280;3567;52.444;13.556;2022-11-06T10:47:20;101294.75;;;13.84;72.13
7052;BME280;3567;52.444;13.556;2022-11-06T10:49:53;101293.78;;;13.90;72.39
7052;BME280;3567;52.444;13.556;2022-11-06T10:52:50;101291.09;;;14.02;70.73
7052;BME280;3567;52.444;13.556;2022-11-06T10:58:01;101280.63;;;13.65;71.96
7052;BME280;3567;52.444;13.556;2022-11-06T11:00:27;101277.78;;;13.72;71.41
7052;BME280;3567;52.444;13.556;2022-11-06T11:03:01;101283.66;;;13.80;71.38
7052;BME280;3567;52.444;13.556;2022-11-06T11:05:40;101270.16;;;13.92;70.23
7052;BME280;3567;52.444;13.556;2022-11-06T11:08:06;101266.00;;;14.13;70.34
7052;BME280;3567;52.444;13.556;2022-11-06T11:10:51;101266.41;;;14.33;70.00
7052;BME280;3567;52.444;13.556;2022-11-06T11:13:19;101263.47;;;14.35;68.97
7052;BME280;3567;52.444;13.556;2022-11-06T11:15:46;101254.31;;;14.36;69.24
7052;BME280;3567;52.444;13.556;2022-11-06T11:20:39;101250.34;;;14.27;69.29
7052;BME280;3567;52.444;13.556;2022-11-06T11:23:19;101250.19;;;14.45;68.74
7052;BME280;3567;52.444;13.556;2022-11-06T11:25:58;101250.91;;;14.40;68.25
7052;BME280;3567;52.444;13.556;2022-11-06T11:28:36;101244.66;;;14.52;68.85
7052;BME280;3567;52.444;13.556;2022-11-06T11:33:27;101239.88;;;14.13;68.87
7052;BME280;3567;52.444;13.556;2022-11-06T11:35:53;101239.38;;;14.16;69.38
7052;BME280;3567;52.444;13.556;2022-11-06T11:38:19;101233.19;;;14.16;69.16
7052;BME280;3567;52.444;13.556;2022-11-06T11:40:47;101239.59;;;14.27;69.08
7052;BME280;3567;52.444;13.556;2022-11-06T11:46:00;101231.41;;;14.22;68.61
7052;BME280;3567;52.444;13.556;2022-11-06T11:48:28;101227.69;;;14.11;68.78
7052;BME280;3567;52.444;13.556;2022-11-06T11:51:39;101225.28;;;13.98;67.88
7052;BME280;3567;52.444;13.556;2022-11-06T11:56:48;101217.25;;;13.86;68.94
7052;BME280;3567;52.444;13.556;2022-11-06T11:59:20;101214.28;;;13.99;69.11
7052;BME280;3567;52.444;13.556;2022-11-06T12:01:46;101212.94;;;14.13;68.88
7052;BME280;3567;52.444;13.556;2022-11-06T12:04:27;101216.06;;;14.22;68.01
7052;BME280;3567;52.444;13.556;2022-11-06T12:07:03;101202.75;;;14.32;68.04
7052;BME280;3567;52.444;13.556;2022-11-06T12:09:39;101210.56;;;14.46;68.09
7052;BME280;3567;52.444;13.556;2022-11-06T12:12:05;101204.47;;;14.50;67.28
7052;BME280;3567;52.444;13.556;2022-11-06T12:14:43;101200.81;;;14.28;67.57
7052;BME280;3567;52.444;13.556;2022-11-06T12:17:22;101193.47;;;14.23;66.99
7052;BME280;3567;52.444;13.556;2022-11-06T12:19:51;101186.44;;;14.22;68.15
7052;BME280;3567;52.444;13.556;2022-11-06T12:22:24;101175.06;;;14.20;67.70
7052;BME280;3567;52.444;13.556;2022-11-06T12:24:54;101174.66;;;14.11;67.58
7052;BME280;3567;52.444;13.556;2022-11-06T12:27:28;101182.03;;;14.04;68.53
7052;BME280;3567;52.444;13.556;2022-11-06T12:30:09;101173.00;;;14.10;67.14
7052;BME280;3567;52.444;13.556;2022-11-06T12:35:17;101163.88;;;13.83;67.70
7052;BME280;3567;52.444;13.556;2022-11-06T12:43:28;101159.75;;;12.81;70.96
7052;BME280;3567;52.444;13.556;2022-11-06T12:52:06;101154.66;;;12.26;73.85
7052;BME280;3567;52.444;13.556;2022-11-06T12:54:36;101155.66;;;12.14;73.88
7052;BME280;3567;52.444;13.556;2022-11-06T12:59:48;101154.00;;;12.13;73.99
7052;BME280;3567;52.444;13.556;2022-11-06T13:05:19;101149.66;;;12.00;75.01
7052;BME280;3567;52.444;13.556;2022-11-06T13:10:50;101148.31;;;11.91;74.80
7052;BME280;3567;52.444;13.556;2022-11-06T13:16:20;101135.47;;;11.93;74.94
7052;BME280;3567;52.444;13.556;2022-11-06T13:18:57;101146.03;;;11.94;75.07
7052;BME280;3567;52.444;13.556;2022-11-06T13:24:02;101135.72;;;11.91;75.12
7052;BME280;3567;52.444;13.556;2022-11-06T13:26:41;101136.34;;;11.93;75.44
7052;BME280;3567;52.444;13.556;2022-11-06T13:29:11;101138.31;;;11.98;74.74
7052;BME280;3567;52.444;13.556;2022-11-06T13:31:46;101132.88;;;12.04;74.49
7052;BME280;3567;52.444;13.556;2022-11-06T13:34:29;101128.44;;;12.10;73.93
7052;BME280;3567;52.444;13.556;2022-11-06T13:36:56;101124.22;;;12.14;74.89
7052;BME280;3567;52.444;13.556;2022-11-06T13:39:39;101114.47;;;12.20;74.82
7052;BME280;3567;52.444;13.556;2022-11-06T13:42:22;101109.31;;;12.30;73.97
7052;BME280;3567;52.444;13.556;2022-11-06T13:44:52;101101.19;;;12.37;73.87
7052;BME280;3567;52.444;13.556;2022-11-06T13:52:41;101089.28;;;12.79;72.72
7052;BME280;3567;52.444;13.556;2022-11-06T13:58:29;101087.75;;;12.95;72.60
7052;BME280;3567;52.444;13.556;2022-11-06T14:11:02;101092.75;;;12.21;73.73
7052;BME280;3567;52.444;13.556;2022-11-06T14:13:32;101091.66;;;12.11;74.00
7052;BME280;3567;52.444;13.556;2022-11-06T14:16:00;101084.16;;;12.01;74.53
7052;BME280;3567;52.444;13.556;2022-11-06T14:18:26;101081.44;;;11.89;75.21
7052;BME280;3567;52.444;13.556;2022-11-06T14:26:45;101083.50;;;11.57;76.34
7052;BME280;3567;52.444;13.556;2022-11-06T14:34:42;101073.25;;;11.36;77.28
7052;BME280;3567;52.444;13.556;2022-11-06T14:44:52;101056.88;;;11.07;78.91
7052;BME280;3567;52.444;13.556;2022-11-06T14:47:23;101057.56;;;11.02;78.96
7052;BME280;3567;52.444;13.556;2022-11-06T14:49:52;101050.19;;;10.98;79.25
7052;BME280;3567;52.444;13.556;2022-11-06T14:52:19;101060.97;;;10.91;79.42
7052;BME280;3567;52.444;13.556;2022-11-06T14:55:05;101052.78;;;10.86;79.41
7052;BME280;3567;52.444;13.556;2022-11-06T14:57:41;101046.69;;;10.79;79.90
7052;BME280;3567;52.444;13.556;2022-11-06T15:00:13;101039.97;;;10.70;80.34
7052;BME280;3567;52.444;13.556;2022-11-06T15:02:40;101037.13;;;10.65;80.58
7052;BME280;3567;52.444;13.556;2022-11-06T15:05:12;101029.16;;;10.58;80.84
7052;BME280;3567;52.444;13.556;2022-11-06T15:10:05;101032.78;;;10.45;81.69
7052;BME280;3567;52.444;13.556;2022-11-06T15:15:41;101028.00;;;10.22;82.90
7052;BME280;3567;52.444;13.556;2022-11-06T15:18:11;101027.91;;;10.11;83.22
7052;BME280;3567;52.444;13.556;2022-11-06T15:20:37;101030.03;;;10.02;83.83
7052;BME280;3567;52.444;13.556;2022-11-06T15:23:08;101026.00;;;9.93;84.23
7052;BME280;3567;52.444;13.556;2022-11-06T15:25:39;101028.91;;;9.85;84.80
7052;BME280;3567;52.444;13.556;2022-11-06T15:30:50;101031.91;;;9.70;85.52